Time;durP1;ratioP1;P1;durP2;ratioP2;P2;SDS_P1;SDS_P2;PMS_P1;PMS_P2;Temp;Humidity;BMP_temperature;BMP_pressure;BME280_temperature;BME280_humidity;BME280_pressure;Samples;Min_cycle;Max_cycle;Signal;HPM_P1;HPM_P2
2023/02/16 00:00:35;;;;;;;2.92;1.30;;;21.90;56.30;;;;;;5052559;28;20203;-54
2023/02/16 00:03:06;;;;;;;2.72;1.67;;;22.00;56.30;;;;;;5052807;28;20195;-55
2023/02/16 00:05:37;;;;;;;2.85;1.98;;;22.00;56.30;;;;;;5051795;28;20195;-51
2023/02/16 00:08:08;;;;;;;3.20;2.00;;;22.00;56.20;;;;;;5052329;28;20572;-53
2023/02/16 00:10:41;;;;;;;2.80;1.63;;;22.00;56.20;;;;;;5052020;28;20222;-51
2023/02/16 00:13:46;;;;;;;2.83;1.83;;;22.00;56.20;;;;;;5052220;28;20254;-52
2023/02/16 00:16:22;;;;;;;2.85;1.83;;;22.10;56.30;;;;;;5052058;28;20211;-53
2023/02/16 00:18:53;;;;;;;2.97;1.70;;;22.10;56.20;;;;;;5051873;28;20206;-53
2023/02/16 00:21:24;;;;;;;3.58;1.50;;;22.10;56.20;;;;;;5051783;28;20216;-55
2023/02/16 00:23:55;;;;;;;1.90;1.45;;;22.20;56.30;;;;;;5051662;28;20195;-54
2023/02/16 00:26:27;;;;;;;3.10;1.70;;;22.20;56.20;;;;;;5048195;28;20196;-53
2023/02/16 00:29:00;;;;;;;3.20;1.52;;;22.20;56.20;;;;;;5051836;28;20222;-53
2023/02/16 00:31:32;;;;;;;3.13;1.60;;;22.20;56.20;;;;;;5051809;28;20310;-54
2023/02/16 00:34:06;;;;;;;3.28;1.63;;;22.20;56.10;;;;;;5051379;28;20262;-55
2023/02/16 00:36:37;;;;;;;3.33;1.60;;;22.30;56.20;;;;;;5051574;28;20215;-52
2023/02/16 00:39:07;;;;;;;2.08;1.48;;;22.30;56.20;;;;;;5051798;28;20207;-52
2023/02/16 00:41:53;;;;;;;1.70;1.48;;;22.30;56.10;;;;;;5051883;28;20227;-54
2023/02/16 00:44:32;;;;;;;2.28;1.58;;;22.40;56.10;;;;;;5051898;28;20203;-54
2023/02/16 00:47:12;;;;;;;2.70;1.52;;;22.40;56.10;;;;;;5051360;28;20199;-54
2023/02/16 00:49:43;;;;;;;2.53;1.40;;;22.40;56.10;;;;;;5051097;28;20204;-55
2023/02/16 00:52:33;;;;;;;3.50;1.67;;;22.40;56.10;;;;;;5051536;28;20211;-54
2023/02/16 00:55:05;;;;;;;4.15;1.98;;;22.50;56.10;;;;;;5051826;28;20199;-53
2023/02/16 00:57:40;;;;;;;2.58;1.50;;;22.50;56.10;;;;;;5052107;28;20214;-54
2023/02/16 01:00:19;;;;;;;3.33;1.65;;;22.50;56.00;;;;;;5051409;28;20199;-55
2023/02/16 01:02:52;;;;;;;2.50;1.60;;;22.60;56.10;;;;;;5051771;28;20199;-53
2023/02/16 01:05:22;;;;;;;1.92;1.50;;;22.60;56.00;;;;;;5051700;28;20206;-55
2023/02/16 01:13:43;;;;;;;2.33;1.23;;;22.70;55.90;;;;;;5015126;28;20220;-54
2023/02/16 01:16:19;;;;;;;2.85;1.63;;;22.70;55.80;;;;;;5051324;28;20227;-53
2023/02/16 01:18:50;;;;;;;3.88;1.85;;;22.80;56.20;;;;;;5057225;28;20264;-53
2023/02/16 01:21:21;;;;;;;1.38;1.27;;;22.80;55.80;;;;;;5057603;28;20212;-55
2023/02/16 01:23:51;;;;;;;2.58;1.50;;;22.80;55.80;;;;;;5057367;28;20195;-53
2023/02/16 01:26:23;;;;;;;1.45;1.20;;;22.80;55.80;;;;;;5040755;28;20192;-54
2023/02/16 01:28:54;;;;;;;2.53;1.50;;;22.90;55.70;;;;;;5037793;28;20258;-51
2023/02/16 01:31:26;;;;;;;2.72;1.63;;;22.90;55.80;;;;;;5037601;28;20227;-56
2023/02/16 01:33:57;;;;;;;3.20;1.67;;;22.90;55.80;;;;;;5037892;28;20223;-54
2023/02/16 01:36:32;;;;;;;2.47;1.75;;;22.90;55.70;;;;;;5039740;28;20196;-53
2023/02/16 01:39:03;;;;;;;1.88;1.40;;;23.00;55.70;;;;;;5056758;28;20205;-54
2023/02/16 01:41:47;;;;;;;1.73;1.30;;;23.00;55.70;;;;;;5057449;28;20226;-55
2023/02/16 01:44:22;;;;;;;2.15;1.40;;;23.00;55.60;;;;;;5057391;28;20199;-53
2023/02/16 01:47:00;;;;;;;2.53;1.35;;;23.00;55.60;;;;;;5057113;28;20191;-53
2023/02/16 01:49:31;;;;;;;1.58;1.38;;;23.10;55.60;;;;;;5057605;28;20211;-54
2023/02/16 01:52:12;;;;;;;1.73;1.42;;;23.10;55.50;;;;;;5057435;28;20809;-54
2023/02/16 01:54:45;;;;;;;2.85;1.50;;;23.20;55.50;;;;;;5057258;28;20222;-55
2023/02/16 01:57:30;;;;;;;3.20;1.60;;;23.20;55.40;;;;;;5054226;28;20191;-55
2023/02/16 02:00:09;;;;;;;2.35;1.58;;;23.10;55.30;;;;;;5057468;28;20206;-53
2023/02/16 02:02:44;;;;;;;3.10;1.35;;;23.20;55.30;;;;;;5057631;28;20624;-55
2023/02/16 02:05:37;;;;;;;2.92;1.60;;;23.20;55.30;;;;;;5057334;28;20199;-55
2023/02/16 02:08:16;;;;;;;2.60;1.40;;;23.30;55.30;;;;;;5057206;28;20210;-55
2023/02/16 02:11:00;;;;;;;2.65;1.40;;;23.30;55.20;;;;;;5057468;28;20219;-55
2023/02/16 02:13:37;;;;;;;2.65;1.30;;;23.30;55.20;;;;;;5057652;28;20234;-55
2023/02/16 02:16:08;;;;;;;2.20;1.42;;;23.30;55.20;;;;;;5056899;28;20663;-56
2023/02/16 02:18:41;;;;;;;2.65;1.63;;;23.30;55.20;;;;;;5056694;28;20199;-56
2023/02/16 02:25:03;;;;;;;2.25;1.33;;;23.40;55.20;;;;;;5057339;28;20729;-55
2023/02/16 02:27:38;;;;;;;1.52;1.35;;;23.40;55.20;;;;;;5040935;28;20195;-54
2023/02/16 02:30:19;;;;;;;2.45;1.40;;;23.50;55.20;;;;;;5053438;28;20290;-56
2023/02/16 02:33:19;;;;;;;1.73;1.40;;;23.50;55.10;;;;;;5050448;28;20195;-55
2023/02/16 02:35:56;;;;;;;1.27;1.00;;;23.50;55.10;;;;;;5049324;28;20195;-55
2023/02/16 02:38:35;;;;;;;2.92;1.70;;;23.50;55.00;;;;;;5053913;28;20203;-54
2023/02/16 02:41:17;;;;;;;2.75;1.33;;;23.60;55.00;;;;;;5054043;28;20216;-54
2023/02/16 02:43:58;;;;;;;3.30;1.63;;;23.60;55.10;;;;;;5054320;28;20202;-53
2023/02/16 02:46:32;;;;;;;1.92;1.30;;;23.60;55.00;;;;;;5053725;28;20206;-55
2023/02/16 02:49:02;;;;;;;1.88;1.33;;;23.60;55.00;;;;;;5053734;28;20191;-54
2023/02/16 02:51:33;;;;;;;2.38;1.30;;;23.60;55.00;;;;;;5053738;28;20227;-54
2023/02/16 03:02:42;;;;;;;2.00;1.40;;;23.80;54.70;;;;;;5054077;28;20222;-55
2023/02/16 03:05:15;;;;;;;1.67;1.23;;;23.80;54.70;;;;;;5053590;28;20206;-55
2023/02/16 03:07:47;;;;;;;2.08;1.17;;;23.80;54.60;;;;;;5053385;28;20199;-55
2023/02/16 03:13:13;;;;;;;1.75;1.25;;;23.90;54.60;;;;;;5053684;28;20238;-54
2023/02/16 03:15:48;;;;;;;2.85;1.40;;;23.90;54.60;;;;;;5053392;28;20214;-54
2023/02/16 03:29:29;;;;;;;1.67;1.42;;;24.00;54.50;;;;;;5053181;28;20194;-54
2023/02/16 03:32:02;;;;;;;1.45;1.05;;;24.10;54.50;;;;;;5052899;28;20216;-54
2023/02/16 03:34:34;;;;;;;1.50;1.25;;;24.10;54.30;;;;;;5043037;28;20224;-54
2023/02/16 03:37:06;;;;;;;1.48;1.27;;;24.10;54.30;;;;;;5035966;28;20643;-54
2023/02/16 03:40:27;;;;;;;1.50;1.33;;;24.10;54.20;;;;;;5047430;28;20184;-55
2023/02/16 03:42:28;;;;;;;1.52;1.00;;;24.20;54.10;;;;;;5032713;28;20307;-54
2023/02/16 03:44:58;;;;;;;1.50;1.40;;;24.20;54.10;;;;;;5032827;28;20287;-53
2023/02/16 03:47:31;;;;;;;1.45;1.20;;;24.20;54.10;;;;;;5032560;28;20214;-54
2023/02/16 03:50:02;;;;;;;1.48;1.15;;;24.30;54.10;;;;;;5032060;28;20215;-55
2023/02/16 03:52:32;;;;;;;1.77;1.30;;;24.30;54.10;;;;;;5032301;28;20224;-55
2023/02/16 03:55:03;;;;;;;1.73;1.10;;;24.30;54.00;;;;;;5032250;28;20231;-55
2023/02/16 03:57:34;;;;;;;1.90;1.15;;;24.30;54.00;;;;;;5032536;28;20663;-56
2023/02/16 04:00:05;;;;;;;1.60;1.13;;;24.40;53.90;;;;;;5046816;28;20191;-54
2023/02/16 04:02:37;;;;;;;1.90;1.00;;;24.40;53.90;;;;;;5052204;28;20242;-54
2023/02/16 04:05:08;;;;;;;1.65;1.10;;;24.40;53.90;;;;;;5052553;28;20218;-55
2023/02/16 04:07:39;;;;;;;1.63;1.38;;;24.50;54.00;;;;;;5052236;28;20204;-55
2023/02/16 04:10:10;;;;;;;1.55;1.05;;;24.50;54.00;;;;;;5052125;28;20206;-55
2023/02/16 04:12:41;;;;;;;1.67;1.20;;;24.50;53.90;;;;;;5051904;28;20226;-56
2023/02/16 04:15:14;;;;;;;1.80;1.20;;;24.50;53.80;;;;;;5051831;28;20234;-55
2023/02/16 04:17:46;;;;;;;1.77;1.10;;;24.50;53.70;;;;;;5051619;28;20643;-56
2023/02/16 04:20:19;;;;;;;2.05;1.10;;;24.60;53.70;;;;;;5051837;28;20585;-54
2023/02/16 04:22:50;;;;;;;2.10;1.23;;;24.60;53.60;;;;;;5051876;28;20195;-55
2023/02/16 04:25:22;;;;;;;1.40;1.10;;;24.70;53.60;;;;;;5051994;28;20203;-55
2023/02/16 04:27:53;;;;;;;2.38;1.17;;;24.70;53.50;;;;;;5052197;28;20202;-54
2023/02/16 04:30:26;;;;;;;1.48;1.33;;;24.70;53.50;;;;;;5052254;28;20644;-54
2023/02/16 04:32:59;;;;;;;1.58;1.20;;;24.80;53.50;;;;;;5052036;28;20243;-55
2023/02/16 04:35:30;;;;;;;1.38;1.00;;;24.80;53.50;;;;;;5051526;28;20227;-55
2023/02/16 04:38:01;;;;;;;2.05;1.20;;;24.80;53.50;;;;;;5051747;28;20572;-53
2023/02/16 04:40:31;;;;;;;1.27;1.17;;;24.80;53.40;;;;;;5048160;28;20191;-54
2023/02/16 04:43:02;;;;;;;2.05;1.15;;;24.80;53.30;;;;;;5051079;28;20257;-52
2023/02/16 04:45:33;;;;;;;1.45;1.30;;;24.90;53.40;;;;;;5051031;28;20550;-56
2023/02/16 04:48:05;;;;;;;1.38;1.10;;;24.90;53.30;;;;;;5051675;28;20199;-55
2023/02/16 04:50:36;;;;;;;1.77;1.23;;;24.90;53.30;;;;;;5051466;28;20203;-54
2023/02/16 04:53:07;;;;;;;1.83;1.30;;;24.90;53.20;;;;;;5051011;28;20199;-54
2023/02/16 04:55:37;;;;;;;1.73;1.20;;;24.90;53.20;;;;;;5051286;28;20443;-54
2023/02/16 04:58:08;;;;;;;1.17;1.02;;;24.90;53.10;;;;;;5051852;28;20211;-56
2023/02/16 05:00:39;;;;;;;1.13;1.00;;;24.90;53.10;;;;;;5051196;28;20210;-55
2023/02/16 05:03:12;;;;;;;1.98;1.20;;;24.90;53.10;;;;;;5051195;28;20196;-55
2023/02/16 05:05:43;;;;;;;1.90;1.10;;;25.00;53.00;;;;;;5051197;28;20203;-56
2023/02/16 05:08:13;;;;;;;1.50;1.20;;;25.00;53.00;;;;;;5051154;28;20643;-55
2023/02/16 05:14:40;;;;;;;1.60;1.20;;;25.00;53.00;;;;;;5051207;28;20207;-54
2023/02/16 05:16:24;;;;;;;1.42;1.10;;;25.00;53.00;;;;;;5051189;28;20195;-54
2023/02/16 05:18:56;;;;;;;1.95;1.40;;;25.00;52.90;;;;;;5051163;28;20684;-55
2023/02/16 05:21:34;;;;;;;1.88;0.90;;;25.00;52.90;;;;;;5051018;28;20234;-55
2023/02/16 05:24:07;;;;;;;1.70;1.10;;;25.10;52.90;;;;;;5050203;28;20234;-55
2023/02/16 05:26:39;;;;;;;1.70;1.10;;;25.00;52.80;;;;;;5049733;28;20564;-54
2023/02/16 05:29:09;;;;;;;3.03;1.48;;;25.10;52.80;;;;;;5051346;28;20198;-56
2023/02/16 05:31:40;;;;;;;1.15;0.93;;;25.10;52.90;;;;;;5050823;28;20219;-54
2023/02/16 05:34:13;;;;;;;1.83;1.40;;;25.10;52.80;;;;;;5050809;28;20710;-54
2023/02/16 05:36:43;;;;;;;1.30;1.10;;;25.10;52.80;;;;;;5051230;28;20210;-54
2023/02/16 05:39:14;;;;;;;1.13;1.02;;;25.10;52.90;;;;;;5051247;28;20192;-53
2023/02/16 05:41:45;;;;;;;2.25;1.13;;;25.10;52.80;;;;;;5051505;28;20222;-54
2023/02/16 05:44:16;;;;;;;1.73;1.20;;;25.10;52.60;;;;;;5041132;28;20679;-54
2023/02/16 05:46:47;;;;;;;1.20;1.10;;;25.10;52.60;;;;;;5030771;28;20199;-53
2023/02/16 05:49:20;;;;;;;1.90;1.40;;;25.20;52.50;;;;;;5030516;28;20200;-55
2023/02/16 05:51:50;;;;;;;1.40;1.25;;;25.10;52.50;;;;;;5030537;28;20216;-54
2023/02/16 05:54:21;;;;;;;3.03;1.40;;;25.10;52.50;;;;;;5030652;28;20228;-53
2023/02/16 05:56:53;;;;;;;1.83;1.15;;;25.20;52.50;;;;;;5031257;28;20204;-54
2023/02/16 05:59:24;;;;;;;1.42;1.13;;;25.20;52.50;;;;;;5030775;28;20665;-54
2023/02/16 06:01:55;;;;;;;1.52;1.02;;;25.20;52.60;;;;;;5031038;28;20475;-55
2023/02/16 06:04:27;;;;;;;2.58;1.35;;;25.20;53.30;;;;;;5031779;28;20203;-55
2023/02/16 06:06:58;;;;;;;1.20;1.05;;;25.20;52.60;;;;;;5048842;28;20254;-55
2023/02/16 06:09:30;;;;;;;1.27;1.17;;;25.20;53.10;;;;;;5054476;28;20656;-55
2023/02/16 06:12:00;;;;;;;2.05;1.10;;;25.20;52.50;;;;;;5054644;28;20215;-54
2023/02/16 06:14:31;;;;;;;1.15;1.05;;;25.20;52.40;;;;;;5054660;28;20231;-54
2023/02/16 06:17:02;;;;;;;1.23;1.13;;;25.20;52.50;;;;;;5054129;28;20253;-56
2023/02/16 06:19:34;;;;;;;1.63;1.17;;;25.20;52.50;;;;;;5053949;28;20199;-56
2023/02/16 06:22:05;;;;;;;1.38;1.10;;;25.20;52.50;;;;;;5054304;28;20220;-55
2023/02/16 06:24:37;;;;;;;1.33;1.00;;;25.20;52.50;;;;;;5054676;28;20199;-54
2023/02/16 06:27:07;;;;;;;1.48;1.20;;;25.20;52.60;;;;;;5054482;28;20268;-55
2023/02/16 06:29:38;;;;;;;1.30;1.00;;;25.20;52.50;;;;;;5054134;28;20192;-55
2023/02/16 06:32:09;;;;;;;1.77;1.02;;;25.20;52.60;;;;;;5053884;28;20687;-52
2023/02/16 06:34:41;;;;;;;1.30;1.20;;;25.20;52.60;;;;;;5050046;28;20207;-54
2023/02/16 06:37:12;;;;;;;1.10;1.00;;;25.20;52.70;;;;;;5053422;28;20215;-53
2023/02/16 06:39:42;;;;;;;1.55;1.00;;;25.20;52.50;;;;;;5053487;28;20203;-53
2023/02/16 06:42:13;;;;;;;1.33;1.00;;;25.20;52.40;;;;;;5053649;28;20601;-54
2023/02/16 06:44:44;;;;;;;1.35;1.17;;;25.20;52.30;;;;;;5053468;28;20546;-53
2023/02/16 06:47:14;;;;;;;1.30;1.20;;;25.20;52.10;;;;;;5053929;28;20210;-55
2023/02/16 06:49:47;;;;;;;1.70;1.00;;;25.20;52.00;;;;;;5053516;28;20208;-54
2023/02/16 06:52:18;;;;;;;1.25;1.15;;;25.10;51.90;;;;;;5053601;28;20215;-50
2023/02/16 06:54:48;;;;;;;1.92;1.10;;;25.10;51.70;;;;;;5053675;28;20226;-54
2023/02/16 06:57:19;;;;;;;1.42;1.20;;;25.20;51.80;;;;;;5054036;28;20195;-55
2023/02/16 06:59:50;;;;;;;1.35;1.05;;;25.10;51.80;;;;;;5053959;28;20222;-54
2023/02/16 07:02:20;;;;;;;1.55;1.10;;;25.10;51.80;;;;;;5053288;28;20219;-53
2023/02/16 07:04:53;;;;;;;1.25;1.08;;;25.10;51.90;;;;;;5053041;28;20196;-54
2023/02/16 07:07:25;;;;;;;1.33;0.98;;;25.10;51.90;;;;;;5052910;28;20242;-53
2023/02/16 07:09:55;;;;;;;1.05;1.00;;;25.10;51.90;;;;;;5053159;28;20239;-53
2023/02/16 07:12:26;;;;;;;1.08;0.98;;;25.10;51.90;;;;;;5053530;28;20251;-51
2023/02/16 07:14:57;;;;;;;1.38;0.93;;;25.10;51.80;;;;;;5053028;28;20230;-53
2023/02/16 07:17:27;;;;;;;1.50;1.20;;;25.10;51.80;;;;;;5053272;28;20192;-55
2023/02/16 07:20:00;;;;;;;1.35;1.17;;;25.10;51.70;;;;;;5052277;28;20722;-54
2023/02/16 07:22:31;;;;;;;0.90;0.90;;;25.10;51.60;;;;;;5035378;28;20216;-54
2023/02/16 07:25:02;;;;;;;1.42;1.30;;;25.10;52.20;;;;;;5033454;28;20196;-54
2023/02/16 07:27:32;;;;;;;1.23;1.08;;;25.00;51.50;;;;;;5032526;28;20246;-54
2023/02/16 07:30:03;;;;;;;1.25;1.10;;;25.10;51.50;;;;;;5032887;28;20196;-55
2023/02/16 07:32:34;;;;;;;1.10;1.00;;;25.00;51.50;;;;;;5033117;28;20684;-53
2023/02/16 07:35:07;;;;;;;0.98;0.93;;;25.00;51.40;;;;;;5032810;28;20228;-54
2023/02/16 07:37:38;;;;;;;1.38;1.27;;;25.00;51.40;;;;;;5040721;28;20211;-56
2023/02/16 07:40:09;;;;;;;2.53;1.52;;;25.00;51.40;;;;;;5042290;28;20191;-53
2023/02/16 07:42:40;;;;;;;1.10;1.00;;;25.00;51.40;;;;;;5031696;28;20692;-56
2023/02/16 07:45:11;;;;;;;1.17;0.98;;;25.00;51.40;;;;;;5032812;28;20211;-54
2023/02/16 07:47:42;;;;;;;1.40;1.30;;;24.90;51.40;;;;;;5033139;28;20219;-52
2023/02/16 07:50:15;;;;;;;1.35;1.10;;;24.90;51.40;;;;;;5032646;28;20234;-55
2023/02/16 07:52:46;;;;;;;1.98;1.10;;;24.90;51.40;;;;;;5033018;28;20227;-54
2023/02/16 07:55:16;;;;;;;1.08;1.00;;;24.90;51.40;;;;;;5032745;28;20699;-52
2023/02/16 07:57:48;;;;;;;1.10;1.00;;;24.90;51.40;;;;;;5033351;28;20288;-53
2023/02/16 08:00:19;;;;;;;1.48;1.00;;;24.90;51.40;;;;;;5032881;28;20278;-55
2023/02/16 08:02:50;;;;;;;1.88;1.20;;;24.90;51.40;;;;;;5032078;28;20216;-54
2023/02/16 08:05:22;;;;;;;1.35;1.10;;;24.80;51.30;;;;;;5048544;28;20195;-54
2023/02/16 08:07:53;;;;;;;1.35;1.00;;;24.90;51.40;;;;;;5051822;28;20204;-53
2023/02/16 08:10:24;;;;;;;1.77;1.15;;;24.80;51.30;;;;;;5052429;28;20199;-54
2023/02/16 08:12:55;;;;;;;1.50;1.40;;;24.80;51.30;;;;;;5051847;28;20200;-53
2023/02/16 08:15:25;;;;;;;1.10;1.00;;;24.80;51.30;;;;;;5052336;28;20223;-55
2023/02/16 08:17:56;;;;;;;1.30;0.90;;;24.80;51.30;;;;;;5052140;28;20645;-54
2023/02/16 08:20:29;;;;;;;1.85;1.00;;;24.70;51.20;;;;;;5051838;28;20286;-55
2023/02/16 08:23:00;;;;;;;1.23;1.13;;;24.70;51.30;;;;;;5052279;28;20203;-54
2023/02/16 08:25:30;;;;;;;1.42;1.10;;;24.70;51.30;;;;;;5052156;28;20191;-53
2023/02/16 08:28:01;;;;;;;1.50;1.10;;;24.70;51.30;;;;;;5051047;28;20211;-54
2023/02/16 08:30:33;;;;;;;1.05;0.90;;;24.70;51.30;;;;;;5051930;28;20199;-52
2023/02/16 08:33:04;;;;;;;1.27;0.90;;;24.70;51.30;;;;;;5051639;28;20198;-54
2023/02/16 08:35:40;;;;;;;1.38;1.20;;;24.70;51.30;;;;;;5051616;28;20230;-55
2023/02/16 08:38:11;;;;;;;1.08;0.90;;;24.70;51.30;;;;;;5051751;28;20199;-56
2023/02/16 08:40:42;;;;;;;1.33;1.00;;;24.60;51.20;;;;;;5051595;28;20203;-55
2023/02/16 08:43:12;;;;;;;1.30;1.00;;;24.70;51.30;;;;;;5047968;28;20203;-55
2023/02/16 08:45:47;;;;;;;1.67;1.20;;;24.60;51.20;;;;;;5051307;28;20200;-56
2023/02/16 08:48:18;;;;;;;1.45;1.00;;;24.60;51.20;;;;;;5051269;28;20195;-53
2023/02/16 08:50:54;;;;;;;1.35;1.10;;;24.60;51.10;;;;;;5051250;28;20234;-55
2023/02/16 08:53:26;;;;;;;1.77;1.20;;;24.60;51.10;;;;;;5051822;28;20199;-55
2023/02/16 08:56:03;;;;;;;1.30;0.90;;;24.50;51.10;;;;;;5051595;28;20305;-54
2023/02/16 08:58:35;;;;;;;1.20;0.90;;;24.50;51.10;;;;;;5051585;28;20245;-54
2023/02/16 09:01:07;;;;;;;1.38;1.10;;;24.50;51.10;;;;;;5050957;28;20223;-54
2023/02/16 09:03:40;;;;;;;1.15;1.00;;;24.50;51.10;;;;;;5050664;28;20351;-54
2023/02/16 09:06:14;;;;;;;2.20;1.35;;;24.50;51.10;;;;;;5050524;28;20226;-56
2023/02/16 09:08:45;;;;;;;1.35;1.00;;;24.50;51.10;;;;;;5050850;28;20615;-55
2023/02/16 09:11:17;;;;;;;2.35;1.13;;;24.40;51.10;;;;;;5050930;28;20219;-55
2023/02/16 09:13:48;;;;;;;1.13;1.00;;;24.40;51.10;;;;;;5051298;28;20200;-53
2023/02/16 09:16:20;;;;;;;1.10;1.00;;;24.40;51.70;;;;;;5050721;28;20227;-53
2023/02/16 09:18:51;;;;;;;0.93;0.90;;;24.40;51.20;;;;;;5039668;28;20196;-52
2023/02/16 09:21:26;;;;;;;1.58;1.00;;;24.40;51.10;;;;;;5031254;28;20532;-55
2023/02/16 09:23:58;;;;;;;1.15;0.85;;;24.40;51.10;;;;;;5031268;28;20192;-54
2023/02/16 09:26:31;;;;;;;1.20;1.10;;;24.30;51.10;;;;;;5031319;28;20207;-55
2023/02/16 09:29:03;;;;;;;1.75;1.00;;;24.30;51.10;;;;;;5031219;28;20287;-54
2023/02/16 09:31:35;;;;;;;1.65;1.02;;;24.30;51.10;;;;;;5031142;28;20692;-55
2023/02/16 09:34:08;;;;;;;1.15;0.85;;;24.30;51.00;;;;;;5031351;28;20537;-55
2023/02/16 09:36:41;;;;;;;1.35;0.98;;;24.30;51.10;;;;;;5031021;28;20228;-55
2023/02/16 09:39:11;;;;;;;0.82;0.82;;;24.20;51.00;;;;;;5053266;28;20207;-55
2023/02/16 09:42:12;;;;;;;1.52;1.00;;;24.20;51.10;;;;;;5055068;28;20231;-54
2023/02/16 09:44:52;;;;;;;1.45;0.90;;;24.20;51.10;;;;;;5055297;28;20204;-54
2023/02/16 09:47:28;;;;;;;1.52;1.00;;;24.20;51.10;;;;;;5054832;28;20439;-53
2023/02/16 09:50:00;;;;;;;1.13;1.02;;;24.20;51.10;;;;;;5044913;28;20219;-53
2023/02/16 09:52:39;;;;;;;1.08;0.98;;;24.20;51.10;;;;;;5034956;28;20564;-54
2023/02/16 09:55:13;;;;;;;1.35;1.10;;;24.20;51.10;;;;;;5034999;28;20203;-52
2023/02/16 09:57:59;;;;;;;1.42;1.00;;;24.10;51.00;;;;;;5035971;28;20486;-54
2023/02/16 10:00:45;;;;;;;1.00;0.90;;;24.10;51.00;;;;;;5034672;28;20200;-54
2023/02/16 10:03:40;;;;;;;1.95;1.02;;;24.10;51.00;;;;;;5034892;28;20196;-55
2023/02/16 10:06:35;;;;;;;1.35;1.08;;;24.10;51.10;;;;;;5034317;28;20200;-54
2023/02/16 10:09:12;;;;;;;1.15;1.00;;;24.00;51.00;;;;;;5053851;28;20209;-54
2023/02/16 10:11:48;;;;;;;0.85;0.85;;;24.00;50.90;;;;;;5054680;28;20252;-53
2023/02/16 10:14:29;;;;;;;1.95;1.10;;;24.00;51.00;;;;;;5054930;28;20647;-55
2023/02/16 10:17:18;;;;;;;1.00;0.95;;;24.00;51.00;;;;;;5054546;28;20227;-53
2023/02/16 10:19:54;;;;;;;0.90;0.85;;;24.00;51.10;;;;;;5054701;28;20210;-54
2023/02/16 10:22:34;;;;;;;1.08;0.98;;;24.00;51.00;;;;;;5054128;28;20731;-51
2023/02/16 10:25:11;;;;;;;1.15;1.00;;;23.90;51.00;;;;;;5054250;28;20682;-54
2023/02/16 10:27:44;;;;;;;1.08;0.90;;;24.00;51.10;;;;;;5054025;28;20199;-54
2023/02/16 10:30:19;;;;;;;1.17;1.08;;;23.90;51.10;;;;;;5054202;28;20203;-50
2023/02/16 10:33:03;;;;;;;1.10;0.95;;;23.90;51.10;;;;;;5054406;28;20616;-53
2023/02/16 10:35:44;;;;;;;0.93;0.80;;;23.90;51.10;;;;;;5053741;28;20237;-51
2023/02/16 10:38:21;;;;;;;1.98;1.02;;;23.80;51.00;;;;;;5052594;28;20195;-52
2023/02/16 10:41:00;;;;;;;1.83;0.95;;;23.90;51.10;;;;;;5054094;28;20686;-53
2023/02/16 10:43:45;;;;;;;1.10;1.00;;;23.80;51.00;;;;;;5053483;28;20191;-50
2023/02/16 10:46:23;;;;;;;1.10;0.82;;;23.80;51.00;;;;;;5053506;28;20223;-50
2023/02/16 10:48:56;;;;;;;1.67;1.10;;;23.80;51.00;;;;;;5053556;28;20643;-53
2023/02/16 10:51:29;;;;;;;1.05;0.90;;;23.80;51.00;;;;;;5052573;28;20211;-53
2023/02/16 10:54:03;;;;;;;1.10;1.00;;;23.80;51.00;;;;;;5053832;28;20191;-55
2023/02/16 10:56:55;;;;;;;0.90;0.80;;;23.70;51.00;;;;;;5054259;28;20223;-54
2023/02/16 10:59:28;;;;;;;1.00;0.90;;;23.70;51.00;;;;;;5053553;28;20334;-52
2023/02/16 11:02:00;;;;;;;1.05;1.00;;;23.70;51.70;;;;;;5053559;28;20219;-52
2023/02/16 11:04:40;;;;;;;2.40;1.10;;;23.70;51.00;;;;;;5053492;28;20196;-55
2023/02/16 11:07:13;;;;;;;1.45;0.95;;;23.70;51.00;;;;;;5053311;28;20199;-55
2023/02/16 11:09:44;;;;;;;1.30;1.10;;;23.70;51.00;;;;;;5053799;28;20205;-51
2023/02/16 11:12:28;;;;;;;1.45;1.17;;;23.70;51.10;;;;;;5053260;28;20560;-53
2023/02/16 11:15:04;;;;;;;0.80;0.80;;;23.70;51.10;;;;;;5053318;28;20286;-51
2023/02/16 11:17:49;;;;;;;1.00;0.90;;;23.70;51.00;;;;;;5053286;28;20239;-51
2023/02/16 11:20:29;;;;;;;1.38;0.90;;;23.60;51.00;;;;;;5041090;28;20195;-54
2023/02/16 11:23:15;;;;;;;1.05;0.90;;;23.60;51.00;;;;;;5033198;28;20231;-53
2023/02/16 11:25:57;;;;;;;1.10;1.00;;;23.60;51.10;;;;;;5032518;28;20656;-54
2023/02/16 11:28:35;;;;;;;1.98;1.00;;;23.50;50.90;;;;;;5032958;28;20196;-52
2023/02/16 11:31:15;;;;;;;0.93;0.80;;;23.50;50.90;;;;;;5032866;28;20227;-53
2023/02/16 11:33:56;;;;;;;1.20;1.00;;;23.50;51.00;;;;;;5033174;28;20196;-54
2023/02/16 11:36:33;;;;;;;1.30;1.20;;;23.50;51.60;;;;;;5033173;28;20226;-56
2023/02/16 11:39:07;;;;;;;1.00;0.90;;;23.50;51.00;;;;;;5052361;28;20207;-51
2023/02/16 11:41:38;;;;;;;1.08;0.98;;;23.40;51.00;;;;;;5042969;28;20266;-54
2023/02/16 11:44:27;;;;;;;2.47;1.00;;;23.40;51.00;;;;;;5032639;28;20699;-55
2023/02/16 11:46:59;;;;;;;1.05;0.95;;;23.40;51.00;;;;;;5032728;28;20560;-54
2023/02/16 11:49:35;;;;;;;1.13;1.02;;;23.40;51.00;;;;;;5032760;28;20210;-54
2023/02/16 11:52:26;;;;;;;0.85;0.85;;;23.40;51.00;;;;;;5032454;28;20220;-52
2023/02/16 11:54:58;;;;;;;0.98;0.95;;;23.40;51.00;;;;;;5033308;28;20196;-51
2023/02/16 11:57:30;;;;;;;0.93;0.93;;;23.40;51.00;;;;;;5047188;28;20233;-50
2023/02/16 12:00:08;;;;;;;2.15;1.10;;;23.40;51.00;;;;;;5052772;28;20191;-52
2023/02/16 12:03:10;;;;;;;0.70;0.70;;;23.30;51.00;;;;;;5052497;28;20229;-53
2023/02/16 12:05:54;;;;;;;1.33;0.85;;;23.30;51.00;;;;;;5052417;28;20202;-55
2023/02/16 12:08:41;;;;;;;1.15;0.88;;;23.30;50.90;;;;;;5051771;28;20744;-53
2023/02/16 12:11:30;;;;;;;0.95;0.90;;;23.30;51.00;;;;;;5051942;28;20223;-52
2023/02/16 12:14:13;;;;;;;1.40;1.00;;;23.30;51.00;;;;;;5051887;28;20196;-51
2023/02/16 12:16:56;;;;;;;0.85;0.80;;;23.20;51.00;;;;;;5052071;28;20227;-52
2023/02/16 12:19:35;;;;;;;0.77;0.77;;;23.20;51.00;;;;;;5052266;28;20209;-50
2023/02/16 12:22:17;;;;;;;1.35;0.90;;;23.20;51.00;;;;;;5052157;28;20221;-53
2023/02/16 12:24:59;;;;;;;1.92;1.05;;;23.20;51.00;;;;;;5052154;28;20231;-52
2023/02/16 12:27:37;;;;;;;1.38;0.70;;;23.20;51.00;;;;;;5051508;28;20206;-53
2023/02/16 12:30:21;;;;;;;0.90;0.80;;;23.20;51.00;;;;;;5051486;28;20202;-54
2023/02/16 12:33:09;;;;;;;1.15;0.82;;;23.10;51.00;;;;;;5052153;28;20223;-54
2023/02/16 12:36:05;;;;;;;0.80;0.75;;;23.10;51.00;;;;;;5051796;28;20210;-52
2023/02/16 12:38:50;;;;;;;0.88;0.88;;;23.10;51.00;;;;;;5051006;28;20677;-55
2023/02/16 12:41:31;;;;;;;1.10;1.00;;;23.10;51.00;;;;;;5051563;28;20238;-54
2023/02/16 12:44:05;;;;;;;0.75;0.68;;;23.00;50.90;;;;;;5051955;28;20195;-55
2023/02/16 12:46:44;;;;;;;0.90;0.90;;;23.00;51.00;;;;;;5048383;28;20548;-50
2023/02/16 12:49:23;;;;;;;0.98;0.82;;;23.00;51.00;;;;;;5051475;28;20206;-55
2023/02/16 12:51:56;;;;;;;1.02;0.80;;;23.00;51.00;;;;;;5051622;28;20218;-52
2023/02/16 12:54:31;;;;;;;1.63;0.90;;;23.00;51.00;;;;;;5051936;28;20282;-53
2023/02/16 12:57:06;;;;;;;0.82;0.75;;;22.90;51.00;;;;;;5052087;28;20249;-51
2023/02/16 12:59:45;;;;;;;0.75;0.75;;;22.90;51.00;;;;;;5051507;28;20566;-55
2023/02/16 13:02:22;;;;;;;1.23;0.95;;;22.90;51.00;;;;;;5051802;28;20216;-52
2023/02/16 13:05:00;;;;;;;1.10;0.82;;;22.90;51.00;;;;;;5051569;28;20699;-52
2023/02/16 13:07:37;;;;;;;0.60;0.60;;;22.90;51.00;;;;;;5050736;28;20593;-54
2023/02/16 13:10:18;;;;;;;1.20;0.80;;;22.90;51.00;;;;;;5050846;28;20195;-51
2023/02/16 13:12:55;;;;;;;1.00;0.90;;;22.90;51.00;;;;;;5050743;28;20215;-50
2023/02/16 13:15:31;;;;;;;1.05;0.85;;;22.90;51.10;;;;;;5051048;28;20198;-52
2023/02/16 13:18:07;;;;;;;1.33;1.00;;;22.90;51.00;;;;;;5051317;28;20233;-54
2023/02/16 13:20:46;;;;;;;0.80;0.80;;;22.90;51.10;;;;;;5034703;28;20203;-52
2023/02/16 13:23:38;;;;;;;0.85;0.80;;;22.80;51.00;;;;;;5031632;28;20199;-50
2023/02/16 13:26:43;;;;;;;0.90;0.90;;;22.80;51.00;;;;;;5031560;28;20196;-54
2023/02/16 13:29:43;;;;;;;2.00;0.80;;;22.80;51.00;;;;;;5012113;28;20291;-51
2023/02/16 13:32:43;;;;;;;1.13;0.80;;;22.80;51.00;;;;;;5031277;28;20216;-54
2023/02/16 13:35:43;;;;;;;0.73;0.73;;;22.80;51.00;;;;;;5031259;28;20231;-52
2023/02/16 13:38:37;;;;;;;0.90;0.90;;;22.70;51.00;;;;;;5042767;28;20238;-50
2023/02/16 13:41:33;;;;;;;1.20;1.10;;;22.70;51.00;;;;;;5050782;28;20226;-51
2023/02/16 13:44:05;;;;;;;1.05;0.90;;;22.70;51.00;;;;;;5051105;28;20207;-54
2023/02/16 13:46:40;;;;;;;0.90;0.90;;;22.70;51.00;;;;;;5044279;28;20185;-54
2023/02/16 13:49:32;;;;;;;1.15;0.75;;;22.70;51.10;;;;;;5030932;28;20674;-52
2023/02/16 13:52:06;;;;;;;0.73;0.73;;;22.70;51.10;;;;;;5030997;28;20216;-52
2023/02/16 13:54:39;;;;;;;2.05;0.80;;;22.70;51.10;;;;;;5031258;28;20200;-51
2023/02/16 13:57:17;;;;;;;0.80;0.80;;;22.60;51.00;;;;;;5037256;28;20223;-51
2023/02/16 13:59:58;;;;;;;0.90;0.80;;;22.60;51.00;;;;;;5050292;28;20195;-52
2023/02/16 14:02:59;;;;;;;0.70;0.68;;;22.60;51.10;;;;;;5051268;28;20219;-51
2023/02/16 14:05:36;;;;;;;1.40;0.88;;;22.60;51.10;;;;;;5051212;28;20199;-51